Latest Weather Observations for Moorabbin Airport

IDV60901

Issued at 11:11 am EST Wednesday 27 July 2016 (issued every 10 minutes, with the page automatically refreshed every 10 minutes)

About weather observations | Map of Melbourne area stations | Latest observations for Melbourne area | Other Formats
Station Details ID: 086077 Name: MOORABBIN AIRPORT Lat: -37.98 Lon: 145.10 Height: 12.1 m
Data from the previous 72 hours. | See also: Recent months at Moorabbin Airport
Date/Time
EST
Temp
°C
App
Temp
°C
Dew
Point
°C
Rel
Hum
%
Delta-T
°C
Wind Press
QNH
hPa
Press
MSL
hPa
Rain since
9am
mm
Dir  Spd
km/h
Gust
km/h
Spd
kts
Gust
kts
27/11:00am 10.2 4.7 6.0 75 1.9 WSW 24 44 13 24 1015.3 1015.3 0.0
27/10:30am 10.7 6.5 7.4 80 1.6 W 19 26 10 14 1014.6 1014.6 0.0
27/10:00am 9.8 5.4 7.4 85 1.1 SW 20 39 11 21 1014.3 1014.3 0.0
27/09:30am 9.4 4.4 8.0 91 0.7 SSW 24 37 13 20 1013.4 1013.4 0.0
27/09:15am 9.9 6.4 8.8 93 0.5 WSW 17 24 9 13 1013.0 1013.0 0.0
27/09:00am 9.6 6.1 8.7 94 0.4 WSW 17 26 9 14 1012.7 1012.7 2.0
27/08:45am 9.5 5.5 8.4 93 0.5 WSW 19 28 10 15 1012.2 1012.2 1.6
27/08:40am 9.5 5.5 8.4 93 0.5 WSW 19 28 10 15 1012.1 1012.1 1.6
27/08:30am 9.4 5.8 8.3 93 0.5 WSW 17 24 9 13 1011.8 1011.8 1.6
27/08:00am 9.4 4.6 7.5 88 0.9 W 22 33 12 18 1010.8 1010.8 1.0
27/07:44am 9.6 5.3 6.9 83 1.3 W 19 30 10 16 1010.3 1010.3 0.2
27/07:36am 10.0 6.0 6.7 80 1.5 WNW 17 26 9 14 1010.2 1010.2 0.0
27/07:30am 10.1 5.5 6.6 79 1.6 WNW 20 32 11 17 1009.9 1009.9 0.0
27/07:00am 9.9 6.6 6.3 78 1.7 NW 13 24 7 13 1009.1 1009.1 0.0
27/06:30am 9.6 5.4 5.8 77 1.7 NW 17 24 9 13 1008.4 1008.4 0.0
27/06:00am 9.7 5.5 5.5 75 1.9 NW 17 22 9 12 1007.9 1007.9 0.0
27/05:30am 9.4 5.6 5.8 78 1.6 NNW 15 20 8 11 1007.3 1007.3 0.0
27/05:00am 9.0 4.8 5.6 79 1.5 NNW 17 26 9 14 1006.9 1006.9 0.0
27/04:30am 9.1 4.4 5.3 77 1.7 NNW 19 30 10 16 1006.5 1006.5 0.0
27/04:00am 9.2 4.3 5.2 76 1.8 NNW 20 33 11 18 1006.0 1006.0 0.0
27/03:30am 9.1 3.4 5.1 76 1.8 NNW 24 33 13 18 1005.9 1005.9 0.0
27/03:00am 9.1 3.4 5.1 76 1.8 NNW 24 35 13 19 1005.5 1005.5 0.0
27/02:30am 9.0 3.7 5.0 76 1.8 N 22 32 12 17 1005.6 1005.6 0.0
27/02:00am 9.1 3.0 4.9 75 1.9 N 26 35 14 19 1005.1 1005.1 0.0
27/01:37am 9.3 2.0 4.7 73 2.0 N 32 52 17 28 1004.7 1004.7 0.0
27/01:30am 9.2 1.9 4.6 73 2.0 N 32 43 17 23 1005.0 1005.0 0.0
27/01:04am 9.6 2.7 4.4 70 2.3 NNW 30 48 16 26 1005.5 1005.5 0.0
27/01:00am 9.7 2.4 4.3 69 2.4 NNW 32 48 17 26 1005.5 1005.5 0.0
27/12:30am 10.0 2.6 4.2 67 2.6 N 32 41 17 22 1005.5 1005.5 0.0
27/12:00am 9.7 1.8 4.1 68 2.5 N 35 50 19 27 1005.2 1005.2 0.0
 
Date/Time
EST
Temp
°C
App
Temp
°C
Dew
Point
°C
Rel
Hum
%
Delta-T
°C
Wind Press
QNH
hPa
Press
MSL
hPa
Rain since
9am
mm
Dir  Spd
km/h
Gust
km/h
Spd
kts
Gust
kts
26/11:36pm 9.7 2.3 3.9 67 2.5 N 32 50 17 27 1005.6 1005.6 0.0
26/11:30pm 9.9 1.9 3.9 66 2.6 N 35 52 19 28 1005.6 1005.6 0.0
26/11:00pm 10.1 1.7 3.8 65 2.8 N 37 56 20 30 1005.7 1005.7 0.0
26/10:35pm 9.7 2.1 4.1 68 2.5 N 33 52 18 28 1006.1 1006.1 0.0
26/10:30pm 9.7 1.0 4.1 68 2.5 N 39 52 21 28 1005.9 1005.9 0.0
26/10:17pm 9.8 2.3 4.2 68 2.5 N 33 52 18 28 1005.9 1005.9 0.0
26/10:00pm 9.6 1.3 4.2 69 2.4 N 37 50 20 27 1006.2 1006.2 0.0
26/09:30pm 9.5 1.9 4.1 69 2.4 N 33 46 18 25 1006.5 1006.5 0.0
26/09:00pm 9.4 2.1 4.4 71 2.2 N 32 43 17 23 1006.6 1006.6 0.0
26/08:43pm 9.2 2.3 4.4 72 2.1 N 30 48 16 26 1006.5 1006.5 0.0
26/08:30pm 9.3 2.0 4.5 72 2.1 N 32 44 17 24 1006.8 1006.8 0.0
26/08:00pm 9.4 1.9 4.4 71 2.2 N 33 44 18 24 1007.4 1007.4 0.0
26/07:30pm 9.2 1.9 4.4 72 2.1 N 32 43 17 23 1007.5 1007.5 0.0
26/07:00pm 9.2 1.9 4.4 72 2.1 N 32 48 17 26 1007.9 1007.9 0.0
26/06:51pm 9.4 2.5 4.4 71 2.2 N 30 48 16 26 1007.8 1007.8 0.0
26/06:30pm 9.0 2.7 4.0 71 2.2 N 26 35 14 19 1007.7 1007.7 0.0
26/06:00pm 9.2 2.1 3.8 69 2.4 N 30 41 16 22 1008.0 1008.0 0.0
26/05:30pm 9.3 2.6 3.9 69 2.4 N 28 39 15 21 1007.9 1007.9 0.0
26/05:00pm 9.9 3.3 4.1 67 2.6 N 28 39 15 21 1008.1 1008.1 0.0
26/04:30pm 9.9 2.3 3.9 66 2.6 N 33 48 18 26 1008.3 1008.3 0.0
26/04:23pm 9.8 2.7 3.8 66 2.6 N 30 48 16 26 1008.4 1008.4 0.0
26/04:00pm 10.0 3.3 3.7 65 2.8 N 28 41 15 22 1008.7 1008.7 0.0
26/03:30pm 10.0 3.7 3.5 64 2.8 N 26 37 14 20 1009.1 1009.1 0.0
26/03:00pm 9.9 3.4 2.7 61 3.1 N 26 37 14 20 1009.6 1009.6 0.0
26/02:30pm 9.9 2.6 2.7 61 3.1 NNW 30 48 16 26 1010.1 1010.1 0.0
26/02:25pm 9.8 2.6 2.9 62 3.0 NNW 30 48 16 26 1010.1 1010.1 0.0
26/02:00pm 9.8 2.2 3.1 63 2.9 N 32 46 17 25 1010.3 1010.3 0.0
26/01:30pm 9.6 3.2 3.4 65 2.7 N 26 39 14 21 1010.7 1010.7 0.0
26/01:00pm 9.1 0.6 3.1 66 2.6 N 37 48 20 26 1011.1 1011.1 0.0
26/12:30pm 9.6 2.0 3.1 64 2.8 NNW 32 44 17 24 1011.7 1011.7 0.0
26/12:20pm 9.5 1.6 2.4 61 3.0 NNW 33 52 18 28 1011.7 1011.7 0.0
26/12:00pm 9.5 2.6 2.4 61 3.0 NNW 28 41 15 22 1012.1 1012.1 0.0
26/11:47am 9.4 2.5 2.3 61 3.0 NNW 28 46 15 25 1012.2 1012.2 0.0
26/11:30am 9.3 2.0 2.4 62 2.9 NNW 30 43 16 23 1012.3 1012.3 0.0
26/11:00am 9.1 2.3 2.9 65 2.6 NNW 28 41 15 22 1012.3 1012.3 0.0
26/10:30am 8.6 1.3 2.6 66 2.5 NNW 30 43 16 23 1012.4 1012.4 0.0
26/10:12am 8.4 1.6 3.1 69 2.3 N 28 46 15 25 1012.4 1012.4 0.0
26/10:00am 8.0 1.1 2.7 69 2.2 NNW 28 39 15 21 1012.5 1012.5 0.0
26/09:30am 8.0 1.5 2.7 69 2.2 NNW 26 41 14 22 1012.3 1012.3 0.0
26/09:00am 7.3 0.4 2.6 72 2.0 N 28 37 15 20 1012.3 1012.3 6.8
26/08:30am 7.0 1.5 1.9 70 2.1 N 20 30 11 16 1012.4 1012.4 6.8
26/08:00am 7.0 1.5 1.7 69 2.2 NNW 20 26 11 14 1011.9 1011.9 6.8
26/07:30am 7.3 1.4 1.8 68 2.2 NNW 22 33 12 18 1011.8 1011.8 6.8
26/07:00am 7.0 2.1 1.9 70 2.1 N 17 20 9 11 1011.5 1011.5 6.8
26/06:30am 6.9 2.3 1.6 69 2.1 NNW 15 20 8 11 1011.1 1011.1 6.8
26/06:00am 6.6 1.6 1.3 69 2.1 N 17 20 9 11 1010.6 1010.6 6.8
26/05:30am 7.9 2.0 1.5 64 2.6 NW 22 30 12 16 1010.4 1010.4 6.8
26/05:00am 7.7 2.1 1.5 65 2.5 NW 20 28 11 15 1010.0 1010.0 6.8
26/04:30am 7.5 2.0 1.6 66 2.4 NW 20 30 11 16 1009.6 1009.6 6.8
26/04:00am 7.7 1.7 1.3 64 2.6 NW 22 28 12 15 1009.4 1009.4 6.8
26/03:30am 8.0 2.1 1.4 63 2.7 NW 22 32 12 17 1009.5 1009.5 6.8
26/03:00am 8.2 1.9 1.6 63 2.7 NW 24 39 13 21 1009.3 1009.3 6.8
26/02:30am 8.1 2.2 1.5 63 2.7 NW 22 32 12 17 1009.1 1009.1 6.8
26/02:00am 8.5 1.8 1.6 62 2.8 NW 26 43 14 23 1009.0 1009.0 6.8
26/01:30am 8.4 2.9 1.8 63 2.7 NW 20 30 11 16 1008.7 1008.7 6.8
26/01:00am 8.2 2.3 1.8 64 2.6 NW 22 33 12 18 1008.4 1008.4 6.8
26/12:30am 8.1 2.6 2.1 66 2.5 NW 20 32 11 17 1008.4 1008.4 6.8
26/12:00am 8.1 2.3 2.1 66 2.5 NW 22 32 12 17 1008.2 1008.2 6.8
 
Date/Time
EST
Temp
°C
App
Temp
°C
Dew
Point
°C
Rel
Hum
%
Delta-T
°C
Wind Press
QNH
hPa
Press
MSL
hPa
Rain since
9am
mm
Dir  Spd
km/h
Gust
km/h
Spd
kts
Gust
kts
25/11:30pm 8.6 1.3 2.2 64 2.7 WNW 30 46 16 25 1007.8 1007.8 6.8
25/11:00pm 8.3 1.4 2.3 66 2.5 WNW 28 39 15 21 1007.7 1007.7 6.8
25/10:30pm 8.3 2.1 2.3 66 2.5 WNW 24 39 13 21 1007.2 1007.2 6.8
25/10:00pm 8.5 1.6 2.3 65 2.6 NW 28 43 15 23 1006.7 1006.7 6.8
25/09:47pm 9.1 1.8 2.4 63 2.8 NW 30 50 16 27 1006.5 1006.5 6.8
25/09:30pm 9.5 2.3 2.8 63 2.9 NW 30 46 16 25 1006.4 1006.4 6.8
25/09:04pm 10.0 3.3 3.5 64 2.8 WNW 28 46 15 25 1006.2 1006.2 6.8
25/09:00pm 9.9 3.2 3.4 64 2.8 NW 28 43 15 23 1006.2 1006.2 6.8
25/08:30pm 10.2 2.1 3.5 63 2.9 WNW 35 57 19 31 1005.9 1005.9 6.8
25/08:00pm 10.8 4.0 4.9 67 2.7 WNW 30 57 16 31 1005.3 1005.3 6.8
25/07:30pm 9.8 3.3 6.5 80 1.5 NNW 30 43 16 23 1004.5 1004.5 6.8
25/07:03pm 9.0 2.1 6.4 84 1.2 NW 32 48 17 26 1004.5 1004.5 6.8
25/07:00pm 8.8 1.7 6.4 85 1.1 WNW 33 50 18 27 1004.7 1004.7 6.8
25/06:30pm 9.6 2.1 6.5 81 1.4 WNW 35 59 19 32 1004.6 1004.6 4.2
25/06:26pm 10.6 3.6 6.7 77 1.8 WNW 33 56 18 30 1004.5 1004.5 2.4
25/06:24pm 10.9 3.8 6.6 75 2.0 NW 33 57 18 31 1004.1 1004.1 1.2
25/06:21pm 11.1 4.0 6.6 74 2.1 NW 33 59 18 32 1003.3 1003.3 0.6
25/06:00pm 12.0 2.9 6.1 67 2.8 NNW 43 61 23 33 1001.9 1001.9 0.0
25/05:30pm 12.2 3.0 5.6 64 3.1 NNW 43 63 23 34 1001.5 1001.5 0.0
25/05:00pm 12.2 2.0 5.1 62 3.3 N 48 70 26 38 1001.7 1001.7 0.0
25/04:30pm 12.2 3.3 4.9 61 3.3 N 41 63 22 34 1002.3 1002.3 0.0
25/04:08pm 12.5 3.1 4.5 58 3.6 NNW 43 63 23 34 1002.3 1002.3 0.0
25/04:00pm 12.7 3.3 4.2 56 3.9 NNW 43 57 23 31 1002.6 1002.6 0.0
25/03:30pm 13.2 4.6 4.4 55 4.0 N 39 57 21 31 1003.2 1003.2 0.0
25/03:16pm 13.0 5.6 4.2 55 4.0 NNW 32 50 17 27 1003.6 1003.6 0.0
25/03:00pm 12.8 4.0 3.5 53 4.2 N 39 52 21 28 1004.0 1004.0 0.0
25/02:39pm 12.6 4.7 4.6 58 3.7 N 35 54 19 29 1004.3 1004.3 0.0
25/02:30pm 12.8 4.1 4.0 55 4.0 N 39 54 21 29 1004.3 1004.3 0.0
25/02:01pm 13.3 5.8 4.2 54 4.1 NNW 33 52 18 28 1005.0 1005.0 0.0
25/02:00pm 13.1 5.2 4.3 55 4.0 NNW 35 52 19 28 1005.0 1005.0 0.0
25/01:30pm 13.5 6.4 3.6 51 4.5 NNW 30 44 16 24 1005.5 1005.5 0.0
25/01:00pm 12.6 5.9 3.8 55 4.0 NNW 28 39 15 21 1006.6 1006.6 0.0
25/12:30pm 12.5 5.4 3.7 55 3.9 NW 30 44 16 24 1007.3 1007.3 0.0
25/12:00pm 12.3 6.1 4.5 59 3.6 WNW 26 41 14 22 1007.5 1007.5 0.0
25/11:30am 12.1 5.8 5.7 65 3.0 WNW 28 46 15 25 1008.1 1008.1 0.0
25/11:14am 12.3 6.0 5.7 64 3.1 NW 28 46 15 25 1008.2 1008.2 0.0
25/11:00am 12.0 6.6 6.5 69 2.6 NW 24 37 13 20 1008.5 1008.5 0.0
25/10:30am 11.6 6.2 6.3 70 2.5 NW 24 35 13 19 1008.6 1008.6 0.0
25/10:00am 10.9 5.0 5.9 71 2.3 NW 26 35 14 19 1008.5 1008.5 0.0
25/09:30am 10.5 4.9 5.3 70 2.4 NW 24 35 13 19 1008.3 1008.3 0.0
25/09:00am 9.9 5.0 4.9 71 2.3 NNW 20 30 11 16 1008.2 1008.2 0.6
25/08:30am 9.7 4.4 4.9 72 2.2 NNW 22 32 12 17 1008.1 1008.1 0.6
25/08:00am 9.3 4.3 4.7 73 2.1 NNW 20 32 11 17 1007.8 1007.8 0.6
25/07:30am 9.1 3.7 4.3 72 2.1 NNW 22 32 12 17 1007.4 1007.4 0.6
25/07:00am 8.7 3.6 4.3 74 1.9 N 20 30 11 16 1006.9 1006.9 0.6
25/06:30am 8.3 3.2 4.1 75 1.8 NNW 20 24 11 13 1006.7 1006.7 0.6
25/06:00am 8.5 3.0 4.1 74 1.9 NNW 22 30 12 16 1006.3 1006.3 0.6
25/05:30am 8.3 2.8 3.8 73 1.9 N 22 30 12 16 1006.0 1006.0 0.6
25/05:00am 8.6 2.7 3.8 72 2.1 NNW 24 33 13 18 1005.8 1005.8 0.6
25/04:30am 8.3 2.4 3.9 74 1.9 NNW 24 32 13 17 1005.5 1005.5 0.6
25/04:00am 8.3 2.8 4.1 75 1.8 N 22 30 12 16 1005.3 1005.3 0.6
25/03:30am 8.1 2.2 4.1 76 1.7 N 24 32 13 17 1005.1 1005.1 0.6
25/03:00am 7.8 1.5 4.0 77 1.6 N 26 33 14 18 1005.0 1005.0 0.6
25/02:30am 7.6 1.8 4.4 80 1.4 N 24 32 13 17 1005.0 1005.0 0.6
25/02:00am 7.5 2.1 4.5 81 1.3 N 22 30 12 16 1005.0 1005.0 0.6
25/01:30am 7.6 1.8 4.4 80 1.4 N 24 32 13 17 1004.9 1004.9 0.6
25/01:00am 7.6 2.5 4.0 78 1.6 N 20 28 11 15 1005.0 1005.0 0.6
25/12:30am 7.9 2.8 4.3 78 1.6 N 20 28 11 15 1004.9 1004.9 0.6
25/12:00am 8.1 2.7 4.5 78 1.6 N 22 30 12 16 1004.9 1004.9 0.6
 
Date/Time
EST
Temp
°C
App
Temp
°C
Dew
Point
°C
Rel
Hum
%
Delta-T
°C
Wind Press
QNH
hPa
Press
MSL
hPa
Rain since
9am
mm
Dir  Spd
km/h
Gust
km/h
Spd
kts
Gust
kts
24/11:30pm 8.2 3.2 4.6 78 1.6 N 20 26 11 14 1004.9 1004.9 0.6
24/11:00pm 8.2 3.2 4.8 79 1.5 N 20 28 11 15 1004.7 1004.7 0.6
24/10:30pm 8.5 2.8 5.1 79 1.5 N 24 33 13 18 1004.6 1004.6 0.6
24/10:00pm 8.5 2.9 5.3 80 1.4 N 24 33 13 18 1004.8 1004.8 0.6
24/09:30pm 8.7 1.5 5.1 78 1.6 N 32 43 17 23 1004.9 1004.9 0.4
24/09:00pm 9.0 1.6 4.2 72 2.1 N 32 44 17 24 1004.9 1004.9 0.4
24/08:31pm 9.3 2.8 4.7 73 2.0 N 28 46 15 25 1004.6 1004.6 0.4
24/08:30pm 9.3 2.8 4.9 74 2.0 N 28 41 15 22 1004.6 1004.6 0.4
24/08:00pm 9.2 2.8 5.0 75 1.9 N 28 39 15 21 1005.0 1005.0 0.0
24/07:30pm 9.6 3.5 4.6 71 2.2 N 26 32 14 17 1004.9 1004.9 0.0
24/07:00pm 9.1 3.7 4.3 72 2.1 N 22 32 12 17 1004.7 1004.7 0.0
24/06:30pm 8.9 3.0 3.9 71 2.2 N 24 32 13 17 1004.7 1004.7 0.0
24/06:00pm 9.3 3.1 4.1 70 2.3 N 26 32 14 17 1004.7 1004.7 0.0
24/05:30pm 9.6 3.8 4.2 69 2.4 NNE 24 33 13 18 1004.7 1004.7 0.0
24/05:00pm 10.0 3.8 4.4 68 2.5 N 26 35 14 19 1005.2 1005.2 0.0
24/04:30pm 10.1 3.9 4.3 67 2.6 N 26 37 14 20 1005.5 1005.5 0.0
24/04:00pm 10.4 3.1 4.3 66 2.7 N 32 46 17 25 1005.7 1005.7 0.0
24/03:30pm 10.9 4.3 4.4 64 2.9 N 28 44 15 24 1005.9 1005.9 0.0
24/03:22pm 10.8 4.3 4.5 65 2.8 N 28 46 15 25 1006.1 1006.1 0.0
24/03:00pm 11.0 3.0 4.0 62 3.1 NNW 35 48 19 26 1006.2 1006.2 0.0
24/02:30pm 10.9 2.2 4.1 63 3.0 N 39 56 21 30 1006.2 1006.2 0.0
24/02:15pm 10.6 3.2 4.1 64 2.9 N 32 50 17 27 1006.5 1006.5 0.0
24/02:00pm 10.5 2.1 3.5 62 3.1 N 37 52 20 28 1006.7 1006.7 0.0
24/01:54pm 11.0 3.4 4.0 62 3.1 NNW 33 52 18 28 1006.5 1006.5 0.0
24/01:30pm 10.3 1.9 3.6 63 2.9 N 37 52 20 28 1006.9 1006.9 0.0
24/01:03pm 10.4 1.9 3.4 62 3.1 NNW 37 56 20 30 1007.3 1007.3 0.0
24/01:00pm 10.5 1.7 3.8 63 3.0 NNW 39 56 21 30 1007.4 1007.4 0.0
24/12:51pm 10.4 2.3 3.4 62 3.1 NNW 35 54 19 29 1007.4 1007.4 0.0
24/12:30pm 10.3 1.8 3.3 62 3.0 NNW 37 50 20 27 1007.8 1007.8 0.0
24/12:11pm 10.4 2.3 3.4 62 3.1 NNW 35 54 19 29 1008.3 1008.3 0.0
24/12:00pm 10.3 2.3 3.6 63 2.9 N 35 50 19 27 1008.4 1008.4 0.0
24/11:30am 9.6 2.5 3.8 67 2.5 N 30 41 16 22 1009.0 1009.0 0.0

Latest Capital City Observations: Canberra | Sydney | Melbourne | Brisbane | Adelaide | Perth | Hobart | Darwin

Other Formats:

Comma delimited format used in spreadsheet applications
http://www.bom.gov.au/fwo/IDV60901/IDV60901.94870.axf

JavaScript Object Notation format (JSON) in row-major order
http://www.bom.gov.au/fwo/IDV60901/IDV60901.94870.json